Time;durP1;ratioP1;P1;durP2;ratioP2;P2;SDS_P1;SDS_P2;PMS_P1;PMS_P2;Temp;Humidity;BMP_temperature;BMP_pressure;BME280_temperature;BME280_humidity;BME280_pressure;Samples;Min_cycle;Max_cycle;Signal;HPM_P1;HPM_P2
2023/01/18 00:01:40;;;;;;;7.15;4.20;;;;;;;;;;5033719;28;20025;-67
2023/01/18 00:04:05;;;;;;;8.05;4.28;;;;;;;;;;5033730;28;20362;-67
2023/01/18 00:06:31;;;;;;;6.07;3.83;;;;;;;;;;5033629;28;20392;-67
2023/01/18 00:08:56;;;;;;;5.47;3.85;;;;;;;;;;5033423;28;20045;-67
2023/01/18 00:11:22;;;;;;;8.82;3.80;;;;;;;;;;5033526;28;20026;-67
2023/01/18 00:13:47;;;;;;;5.03;3.85;;;;;;;;;;5033815;28;20029;-67
2023/01/18 00:16:18;;;;;;;8.20;4.20;;;;;;;;;;5015342;28;20022;-67
2023/01/18 00:18:53;;;;;;;5.88;3.92;;;;;;;;;;5033574;28;20029;-68
2023/01/18 00:21:19;;;;;;;5.68;3.85;;;;;;;;;;5033415;28;20036;-67
2023/01/18 00:23:45;;;;;;;6.35;3.67;;;;;;;;;;5033488;28;20143;-67
2023/01/18 00:26:11;;;;;;;6.80;3.90;;;;;;;;;;5015991;28;20021;-67
2023/01/18 00:28:38;;;;;;;6.82;4.20;;;;;;;;;;5033199;28;20465;-67
2023/01/18 00:31:18;;;;;;;6.07;4.05;;;;;;;;;;5033213;28;20025;-67
2023/01/18 00:33:44;;;;;;;;;;;;;;;;;;5033622;28;20469;-67
2023/01/18 00:36:12;;;;;;;7.95;4.50;;;;;;;;;;5033177;28;20070;-67
2023/01/18 00:38:37;;;;;;;6.10;4.20;;;;;;;;;;5033095;28;20026;-67
2023/01/18 00:41:03;;;;;;;8.85;3.90;;;;;;;;;;5033011;28;20022;-67
2023/01/18 00:43:37;;;;;;;7.47;4.00;;;;;;;;;;5032956;28;20022;-67
2023/01/18 00:46:11;;;;;;;6.95;4.13;;;;;;;;;;5032933;28;20032;-67
2023/01/18 00:48:38;;;;;;;5.68;3.83;;;;;;;;;;5033150;28;20026;-67
2023/01/18 00:51:05;;;;;;;4.95;3.80;;;;;;;;;;5033004;28;20080;-67
2023/01/18 00:53:31;;;;;;;4.78;3.58;;;;;;;;;;5033103;28;20025;-67
2023/01/18 00:55:57;;;;;;;4.53;3.47;;;;;;;;;;5032677;28;20021;-66
2023/01/18 00:58:23;;;;;;;4.85;3.50;;;;;;;;;;5032931;28;20037;-67
2023/01/18 01:00:51;;;;;;;6.53;4.15;;;;;;;;;;5034447;28;20108;-67
2023/01/18 01:03:16;;;;;;;6.40;3.70;;;;;;;;;;5033004;28;20108;-67
2023/01/18 01:08:26;;;;;;;5.28;3.72;;;;;;;;;;5032555;28;20052;-68
2023/01/18 01:10:52;;;;;;;5.95;3.60;;;;;;;;;;5033060;28;20029;-67
2023/01/18 01:27:10;;;;;;;6.68;3.88;;;;;;;;;;5032279;28;20036;-67
2023/01/18 01:29:36;;;;;;;6.03;3.60;;;;;;;;;;5032406;28;20045;-67
2023/01/18 01:32:02;;;;;;;6.10;4.10;;;;;;;;;;5032379;28;20032;-66
2023/01/18 01:34:28;;;;;;;6.25;4.10;;;;;;;;;;5032329;28;20030;-68
2023/01/18 01:36:54;;;;;;;5.57;3.55;;;;;;;;;;5032377;28;20278;-68
2023/01/18 01:39:20;;;;;;;6.68;4.20;;;;;;;;;;5032512;28;20373;-67
2023/01/18 01:41:46;;;;;;;5.88;4.28;;;;;;;;;;5032285;28;20031;-66
2023/01/18 01:44:20;;;;;;;5.45;3.80;;;;;;;;;;5032554;28;20113;-67
2023/01/18 01:46:56;;;;;;;4.53;3.50;;;;;;;;;;5032514;28;20028;-67
2023/01/18 01:49:45;;;;;;;4.32;3.28;;;;;;;;;;5032570;28;20033;-67
2023/01/18 01:52:19;;;;;;;5.68;3.75;;;;;;;;;;5032289;28;20152;-67
2023/01/18 01:54:52;;;;;;;6.25;3.72;;;;;;;;;;5032210;28;20385;-67
2023/01/18 01:57:21;;;;;;;4.85;3.70;;;;;;;;;;5032157;28;20038;-68
2023/01/18 02:00:14;;;;;;;4.43;3.55;;;;;;;;;;5032269;28;20044;-67
2023/01/18 02:02:41;;;;;;;5.38;3.40;;;;;;;;;;5032088;28;20025;-67
2023/01/18 02:05:11;;;;;;;4.78;3.78;;;;;;;;;;5032073;28;20112;-67
2023/01/18 02:07:37;;;;;;;5.65;3.50;;;;;;;;;;5032262;28;20033;-67
2023/01/18 02:10:04;;;;;;;4.80;3.60;;;;;;;;;;5031862;28;20041;-67
2023/01/18 02:12:31;;;;;;;4.65;3.60;;;;;;;;;;5014220;28;20034;-67
2023/01/18 02:14:58;;;;;;;4.57;3.50;;;;;;;;;;5031995;28;20499;-67
2023/01/18 02:17:52;;;;;;;5.20;3.50;;;;;;;;;;5031927;28;20060;-67
2023/01/18 02:20:39;;;;;;;5.65;3.78;;;;;;;;;;5032180;28;20416;-66
2023/01/18 02:23:20;;;;;;;5.22;3.70;;;;;;;;;;5032104;28;20022;-67
2023/01/18 02:26:31;;;;;;;5.05;3.67;;;;;;;;;;5032140;28;20034;-67
2023/01/18 02:29:13;;;;;;;6.03;3.75;;;;;;;;;;5031942;28;20080;-68
2023/01/18 02:32:07;;;;;;;3.80;3.30;;;;;;;;;;5031758;28;20072;-67
2023/01/18 02:34:44;;;;;;;5.22;3.45;;;;;;;;;;5031729;28;20087;-67
2023/01/18 02:37:48;;;;;;;6.43;3.50;;;;;;;;;;5031702;28;20030;-68
2023/01/18 02:40:22;;;;;;;4.18;3.60;;;;;;;;;;4989293;28;20064;-68
2023/01/18 02:48:24;;;;;;;6.30;3.70;;;;;;;;;;5035272;28;20040;-67
2023/01/18 02:50:50;;;;;;;4.75;3.55;;;;;;;;;;5035379;28;20026;-68
2023/01/18 02:53:16;;;;;;;3.75;3.13;;;;;;;;;;5035302;28;20377;-68
2023/01/18 02:55:58;;;;;;;6.28;3.58;;;;;;;;;;5035043;28;20112;-67
2023/01/18 02:58:38;;;;;;;4.68;3.30;;;;;;;;;;5035064;28;20118;-67
2023/01/18 03:01:04;;;;;;;4.30;3.10;;;;;;;;;;5034962;28;20052;-67
2023/01/18 03:03:29;;;;;;;3.70;3.10;;;;;;;;;;5034933;28;20025;-67
2023/01/18 03:06:00;;;;;;;3.78;3.35;;;;;;;;;;5034836;28;20426;-66
2023/01/18 03:08:25;;;;;;;4.85;3.22;;;;;;;;;;5034679;28;20049;-67
2023/01/18 03:10:59;;;;;;;4.60;3.22;;;;;;;;;;5034775;28;20100;-66
2023/01/18 03:13:46;;;;;;;4.40;3.70;;;;;;;;;;5035054;28;20033;-67
2023/01/18 03:16:24;;;;;;;4.28;3.22;;;;;;;;;;5034618;28;20059;-67
2023/01/18 03:19:01;;;;;;;4.50;3.35;;;;;;;;;;5034646;28;20025;-67
2023/01/18 03:21:41;;;;;;;5.03;3.45;;;;;;;;;;5034517;28;20021;-67
2023/01/18 03:24:09;;;;;;;5.60;3.13;;;;;;;;;;5034878;28;20437;-68
2023/01/18 03:26:39;;;;;;;6.13;3.38;;;;;;;;;;5034412;28;20079;-68
2023/01/18 03:34:59;;;;;;;4.72;3.40;;;;;;;;;;5034377;28;20028;-67
2023/01/18 03:37:36;;;;;;;4.57;3.30;;;;;;;;;;5034376;28;20065;-67
2023/01/18 03:40:09;;;;;;;4.20;3.05;;;;;;;;;;5034289;28;20477;-67
2023/01/18 03:43:07;;;;;;;3.20;2.90;;;;;;;;;;5034137;28;20078;-66
2023/01/18 03:45:37;;;;;;;4.50;3.25;;;;;;;;;;5033332;28;20064;-66
2023/01/18 03:48:03;;;;;;;4.32;3.33;;;;;;;;;;5034404;28;20057;-67
2023/01/18 03:50:59;;;;;;;3.97;3.13;;;;;;;;;;5016148;28;20030;-68
2023/01/18 03:53:38;;;;;;;4.85;3.63;;;;;;;;;;5034579;28;20373;-68
2023/01/18 03:56:12;;;;;;;4.50;3.50;;;;;;;;;;5033965;28;20021;-67
2023/01/18 03:58:38;;;;;;;5.25;3.40;;;;;;;;;;5033900;28;20133;-68
2023/01/18 04:01:05;;;;;;;4.25;2.95;;;;;;;;;;5033760;28;20532;-67
2023/01/18 04:03:32;;;;;;;4.57;3.00;;;;;;;;;;5016095;28;20025;-67
2023/01/18 04:06:03;;;;;;;6.53;3.30;;;;;;;;;;5033930;28;20041;-67
2023/01/18 04:08:28;;;;;;;4.57;3.80;;;;;;;;;;5033458;28;20087;-67
2023/01/18 04:10:54;;;;;;;4.78;3.30;;;;;;;;;;5033462;28;20069;-67
2023/01/18 04:13:19;;;;;;;4.38;3.22;;;;;;;;;;5033486;28;20037;-67
2023/01/18 04:15:45;;;;;;;3.85;3.00;;;;;;;;;;5033535;28;20030;-68
2023/01/18 04:18:10;;;;;;;4.28;3.10;;;;;;;;;;5033568;28;20075;-67
2023/01/18 04:20:36;;;;;;;3.67;2.90;;;;;;;;;;5016141;28;20038;-67
2023/01/18 04:23:01;;;;;;;4.68;3.15;;;;;;;;;;5033714;28;20025;-67
2023/01/18 04:25:27;;;;;;;4.80;3.22;;;;;;;;;;5033453;28;20025;-67
2023/01/18 04:27:53;;;;;;;4.28;3.17;;;;;;;;;;5033542;28;20037;-67
2023/01/18 04:30:18;;;;;;;4.85;3.55;;;;;;;;;;5015627;28;20600;-68
2023/01/18 04:32:45;;;;;;;3.38;2.78;;;;;;;;;;5033197;28;20025;-68
2023/01/18 04:35:11;;;;;;;4.20;3.10;;;;;;;;;;5033133;28;20031;-68
2023/01/18 04:37:37;;;;;;;4.32;3.30;;;;;;;;;;5015365;28;20029;-67
2023/01/18 04:40:05;;;;;;;4.53;3.35;;;;;;;;;;5033044;28;20095;-67
2023/01/18 04:42:31;;;;;;;3.80;3.30;;;;;;;;;;5032938;28;20068;-68
2023/01/18 04:44:58;;;;;;;4.28;3.45;;;;;;;;;;5032991;28;20025;-67
2023/01/18 04:47:25;;;;;;;3.67;3.20;;;;;;;;;;5032873;28;20420;-68
2023/01/18 04:49:50;;;;;;;3.95;3.03;;;;;;;;;;5033185;28;20034;-67
2023/01/18 04:52:16;;;;;;;3.65;2.97;;;;;;;;;;5033112;28;20461;-67
2023/01/18 04:54:42;;;;;;;3.65;3.00;;;;;;;;;;5032913;28;20037;-67
2023/01/18 04:57:07;;;;;;;4.03;3.00;;;;;;;;;;5032941;28;20025;-68
2023/01/18 04:59:33;;;;;;;4.70;3.10;;;;;;;;;;5033119;28;20036;-67
2023/01/18 05:01:58;;;;;;;3.70;2.92;;;;;;;;;;5032756;28;20389;-67
2023/01/18 05:04:24;;;;;;;4.57;3.20;;;;;;;;;;5032866;28;20469;-67
2023/01/18 05:06:50;;;;;;;5.22;3.50;;;;;;;;;;5033019;28;20033;-67
2023/01/18 05:09:15;;;;;;;3.45;3.13;;;;;;;;;;5032551;28;20451;-67
2023/01/18 05:11:42;;;;;;;3.45;2.90;;;;;;;;;;5032948;28;20529;-67
2023/01/18 05:14:07;;;;;;;3.95;2.95;;;;;;;;;;5032927;28;20030;-66
2023/01/18 05:16:34;;;;;;;3.88;2.65;;;;;;;;;;5032896;28;20378;-66
2023/01/18 05:18:59;;;;;;;3.50;3.00;;;;;;;;;;5032606;28;20026;-66
2023/01/18 05:21:25;;;;;;;4.00;2.72;;;;;;;;;;5032654;28;20025;-66
2023/01/18 05:23:51;;;;;;;4.15;3.05;;;;;;;;;;5032414;28;20025;-66
2023/01/18 05:26:19;;;;;;;3.95;3.03;;;;;;;;;;5032376;28;20029;-66
2023/01/18 05:28:45;;;;;;;4.82;3.22;;;;;;;;;;5032293;28;20465;-66
2023/01/18 05:31:12;;;;;;;3.90;2.90;;;;;;;;;;5038493;28;20025;-66
2023/01/18 05:33:38;;;;;;;3.50;3.17;;;;;;;;;;5044233;28;20021;-66
2023/01/18 05:36:04;;;;;;;3.40;2.92;;;;;;;;;;5039413;28;20419;-67
2023/01/18 05:38:29;;;;;;;4.20;2.83;;;;;;;;;;5039378;28;20021;-66
2023/01/18 05:54:31;;;;;;;4.97;3.72;;;;;;;;;;5089917;27;20397;-63
2023/01/18 05:56:57;;;;;;;4.35;3.05;;;;;;;;;;5089780;28;20433;-65
2023/01/18 05:59:22;;;;;;;3.50;3.20;;;;;;;;;;5089817;28;20383;-63
2023/01/18 06:01:48;;;;;;;4.10;3.05;;;;;;;;;;5088261;28;20028;-66
2023/01/18 06:04:13;;;;;;;3.83;3.15;;;;;;;;;;5089930;28;20131;-64
2023/01/18 06:06:39;;;;;;;3.33;2.95;;;;;;;;;;5089402;28;20025;-65
2023/01/18 06:09:05;;;;;;;3.10;2.75;;;;;;;;;;5089592;28;20420;-66
2023/01/18 06:11:30;;;;;;;4.60;3.00;;;;;;;;;;5089437;28;20020;-66
2023/01/18 06:13:56;;;;;;;3.63;3.05;;;;;;;;;;5089815;28;20027;-64
2023/01/18 06:16:23;;;;;;;3.47;2.92;;;;;;;;;;5089377;28;20079;-65
2023/01/18 06:18:48;;;;;;;3.83;3.10;;;;;;;;;;5089650;28;20020;-66
2023/01/18 06:21:14;;;;;;;3.30;3.00;;;;;;;;;;5089330;28;20498;-64
2023/01/18 06:23:40;;;;;;;3.90;3.00;;;;;;;;;;5089169;28;20040;-64
2023/01/18 06:26:06;;;;;;;4.35;3.40;;;;;;;;;;5089108;28;20016;-64
2023/01/18 06:28:31;;;;;;;4.13;2.88;;;;;;;;;;5089508;28;20075;-64
2023/01/18 06:30:57;;;;;;;4.43;3.13;;;;;;;;;;5089365;28;20051;-65
2023/01/18 06:33:23;;;;;;;3.60;2.72;;;;;;;;;;5089363;28;20491;-66
2023/01/18 06:35:49;;;;;;;4.07;3.00;;;;;;;;;;5089249;28;20098;-64
2023/01/18 06:38:14;;;;;;;3.72;3.15;;;;;;;;;;5089384;28;20483;-66
2023/01/18 06:40:40;;;;;;;3.42;2.90;;;;;;;;;;5089033;28;20519;-66
2023/01/18 06:55:12;;;;;;;4.10;3.10;;;;;;;;;;5081226;27;1443657;-63
2023/01/18 06:57:37;;;;;;;3.67;3.17;;;;;;;;;;5110343;28;20035;-67
2023/01/18 07:00:07;;;;;;;3.78;2.97;;;;;;;;;;5110022;28;20019;-65
2023/01/18 07:02:33;;;;;;;3.43;3.13;;;;;;;;;;5110221;28;20077;-63
2023/01/18 07:04:58;;;;;;;7.25;3.13;;;;;;;;;;5110094;28;20065;-63
2023/01/18 07:07:24;;;;;;;2.83;2.53;;;;;;;;;;5110022;28;20467;-67
2023/01/18 07:09:50;;;;;;;4.18;2.90;;;;;;;;;;5110116;28;20531;-66
2023/01/18 07:12:16;;;;;;;4.00;3.10;;;;;;;;;;5109931;28;20074;-67
2023/01/18 07:14:41;;;;;;;5.00;3.28;;;;;;;;;;5109858;28;20475;-64
2023/01/18 07:17:07;;;;;;;3.20;2.67;;;;;;;;;;5109494;28;20027;-64
2023/01/18 07:19:33;;;;;;;4.18;3.00;;;;;;;;;;5098391;28;20024;-67
2023/01/18 07:22:00;;;;;;;4.05;2.95;;;;;;;;;;5089265;28;20483;-67
2023/01/18 07:24:26;;;;;;;3.58;2.90;;;;;;;;;;5089508;28;20027;-63
2023/01/18 07:26:53;;;;;;;3.03;2.72;;;;;;;;;;5089070;28;20027;-64
2023/01/18 07:29:18;;;;;;;3.92;2.80;;;;;;;;;;5089065;28;20472;-65
2023/01/18 07:31:44;;;;;;;3.85;2.85;;;;;;;;;;5070752;28;20082;-67
2023/01/18 07:34:10;;;;;;;3.88;2.85;;;;;;;;;;5089089;28;20119;-67
2023/01/18 07:36:38;;;;;;;3.92;2.75;;;;;;;;;;5088868;28;20470;-67
2023/01/18 07:39:05;;;;;;;4.18;2.95;;;;;;;;;;5071180;28;20472;-66
2023/01/18 07:41:31;;;;;;;3.72;2.80;;;;;;;;;;5088829;28;20035;-63
2023/01/18 07:43:56;;;;;;;3.22;2.60;;;;;;;;;;5088853;28;20103;-63
2023/01/18 07:46:24;;;;;;;3.47;2.80;;;;;;;;;;5088771;28;20028;-68
2023/01/18 07:48:51;;;;;;;3.80;3.08;;;;;;;;;;5088968;28;20024;-68
2023/01/18 07:51:17;;;;;;;3.30;2.75;;;;;;;;;;5088569;28;20027;-67
2023/01/18 07:53:44;;;;;;;3.33;2.90;;;;;;;;;;5088293;28;20044;-69
2023/01/18 07:56:16;;;;;;;4.28;3.00;;;;;;;;;;5074545;28;20152;-69
2023/01/18 07:58:42;;;;;;;4.15;2.75;;;;;;;;;;5075111;28;20025;-65
2023/01/18 08:01:13;;;;;;;4.25;2.78;;;;;;;;;;5075056;28;20029;-63
2023/01/18 08:03:41;;;;;;;4.13;2.92;;;;;;;;;;5075297;28;20028;-67
2023/01/18 08:06:07;;;;;;;5.03;3.00;;;;;;;;;;5074917;28;20035;-62
2023/01/18 08:08:33;;;;;;;3.67;3.00;;;;;;;;;;5074768;28;20025;-64
2023/01/18 08:11:02;;;;;;;3.33;2.88;;;;;;;;;;5074742;28;20384;-64
2023/01/18 08:13:28;;;;;;;3.33;2.60;;;;;;;;;;5074786;28;20025;-63
2023/01/18 08:15:55;;;;;;;3.75;2.70;;;;;;;;;;5074931;28;20032;-63
2023/01/18 08:18:22;;;;;;;3.38;2.65;;;;;;;;;;5074794;28;20028;-67
2023/01/18 08:20:48;;;;;;;3.80;2.70;;;;;;;;;;5074913;28;20487;-67
2023/01/18 08:23:15;;;;;;;4.30;2.80;;;;;;;;;;5074918;28;20033;-67
2023/01/18 08:25:41;;;;;;;2.90;2.47;;;;;;;;;;5077218;28;20026;-66
2023/01/18 08:28:08;;;;;;;2.88;2.67;;;;;;;;;;5078279;28;20024;-67
2023/01/18 08:30:37;;;;;;;3.15;2.50;;;;;;;;;;5078143;28;20503;-62
2023/01/18 08:33:04;;;;;;;3.22;2.78;;;;;;;;;;5078317;28;20107;-67
2023/01/18 08:35:33;;;;;;;3.08;2.40;;;;;;;;;;5077414;28;20023;-66
2023/01/18 08:38:00;;;;;;;3.50;2.70;;;;;;;;;;5078764;28;20016;-66
2023/01/18 08:40:27;;;;;;;3.47;2.67;;;;;;;;;;5079184;28;20354;-66
2023/01/18 08:42:57;;;;;;;4.10;2.88;;;;;;;;;;5077797;28;20024;-68
2023/01/18 08:45:24;;;;;;;3.40;2.60;;;;;;;;;;5079290;28;21872;-66
2023/01/18 08:48:01;;;;;;;2.60;2.40;;;;;;;;;;5079459;28;20033;-66
2023/01/18 08:50:28;;;;;;;2.88;2.40;;;;;;;;;;5061308;28;20330;-67
2023/01/18 08:52:53;;;;;;;2.88;2.47;;;;;;;;;;5090476;28;20020;-67
2023/01/18 08:55:20;;;;;;;2.72;2.40;;;;;;;;;;5093367;28;20123;-67
2023/01/18 08:57:47;;;;;;;3.42;2.83;;;;;;;;;;5094358;28;20016;-68
2023/01/18 09:00:13;;;;;;;3.53;2.63;;;;;;;;;;5080276;28;20028;-66
2023/01/18 09:02:41;;;;;;;3.33;2.70;;;;;;;;;;5065145;28;20031;-66
2023/01/18 09:05:08;;;;;;;4.15;3.05;;;;;;;;;;5079828;28;20059;-67
2023/01/18 09:07:33;;;;;;;2.85;2.55;;;;;;;;;;5073232;28;20056;-67
2023/01/18 09:09:59;;;;;;;3.08;2.50;;;;;;;;;;5082103;28;20532;-69
2023/01/18 09:12:25;;;;;;;3.83;2.72;;;;;;;;;;5084366;28;20088;-68
2023/01/18 09:14:50;;;;;;;2.80;2.35;;;;;;;;;;5078037;28;20387;-63
2023/01/18 09:17:20;;;;;;;2.78;2.28;;;;;;;;;;5076500;28;20365;-64
2023/01/18 09:19:45;;;;;;;3.17;2.35;;;;;;;;;;5059264;28;20107;-66
2023/01/18 09:22:11;;;;;;;2.42;2.22;;;;;;;;;;5068698;28;20112;-66
2023/01/18 09:24:37;;;;;;;2.50;2.30;;;;;;;;;;5066896;28;20410;-65
2023/01/18 09:27:06;;;;;;;4.82;2.30;;;;;;;;;;5084722;28;20066;-62
2023/01/18 09:29:31;;;;;;;4.20;2.55;;;;;;;;;;5093902;28;20066;-63
2023/01/18 09:31:58;;;;;;;3.00;2.72;;;;;;;;;;5089140;28;20048;-64
2023/01/18 09:34:24;;;;;;;2.75;2.33;;;;;;;;;;5093827;28;20028;-63
2023/01/18 09:36:51;;;;;;;2.63;2.30;;;;;;;;;;5093316;28;20558;-64
2023/01/18 09:39:21;;;;;;;2.47;2.28;;;;;;;;;;5093506;28;20046;-68
2023/01/18 09:42:09;;;;;;;2.83;2.58;;;;;;;;;;5081715;28;20048;-66
2023/01/18 09:44:47;;;;;;;2.97;2.40;;;;;;;;;;5073265;28;20050;-62
2023/01/18 09:47:24;;;;;;;2.50;2.30;;;;;;;;;;5072912;28;20133;-67
2023/01/18 09:49:55;;;;;;;13.27;11.85;;;;;;;;;;5055077;28;20035;-63
2023/01/18 09:52:56;;;;;;;5.43;3.05;;;;;;;;;;5073090;28;20071;-63
2023/01/18 09:55:50;;;;;;;4.45;2.70;;;;;;;;;;5072638;28;20534;-61
2023/01/18 09:58:33;;;;;;;2.53;2.33;;;;;;;;;;5074593;28;20020;-63
2023/01/18 10:01:10;;;;;;;6.43;2.60;;;;;;;;;;5088007;28;20027;-64
2023/01/18 10:03:48;;;;;;;3.83;2.55;;;;;;;;;;5083939;28;20072;-63
2023/01/18 10:06:23;;;;;;;3.05;2.40;;;;;;;;;;5081845;28;20036;-60
2023/01/18 10:09:03;;;;;;;5.03;2.78;;;;;;;;;;5074851;28;20028;-62
2023/01/18 10:12:12;;;;;;;4.15;2.50;;;;;;;;;;5084489;28;20020;-61
2023/01/18 10:14:49;;;;;;;3.05;2.75;;;;;;;;;;5084280;28;20067;-61
2023/01/18 10:17:17;;;;;;;3.10;2.80;;;;;;;;;;5054386;28;20037;-61
2023/01/18 10:19:43;;;;;;;5.25;2.42;;;;;;;;;;5072503;28;20029;-62
2023/01/18 10:22:19;;;;;;;2.60;2.40;;;;;;;;;;5071766;28;20063;-61
2023/01/18 10:25:26;;;;;;;3.28;2.58;;;;;;;;;;5071083;28;20105;-62
2023/01/18 10:27:57;;;;;;;2.70;2.50;;;;;;;;;;4992290;28;20033;-61
2023/01/18 10:30:40;;;;;;;3.25;2.45;;;;;;;;;;5008718;28;20488;-61
2023/01/18 10:33:16;;;;;;;2.67;2.40;;;;;;;;;;5047129;28;20047;-62
2023/01/18 10:35:47;;;;;;;3.40;2.38;;;;;;;;;;5074243;28;20429;-62
2023/01/18 10:38:17;;;;;;;3.67;2.58;;;;;;;;;;5076583;28;20028;-61
2023/01/18 10:40:53;;;;;;;2.40;2.20;;;;;;;;;;5072856;28;20479;-59
2023/01/18 10:43:23;;;;;;;2.50;2.30;;;;;;;;;;5061977;28;20033;-60
2023/01/18 10:45:52;;;;;;;3.03;2.15;;;;;;;;;;5073425;28;20051;-61
2023/01/18 10:48:30;;;;;;;2.85;2.50;;;;;;;;;;5067093;28;20059;-60
2023/01/18 10:50:59;;;;;;;2.50;2.30;;;;;;;;;;5091666;28;20069;-60
2023/01/18 10:53:32;;;;;;;3.40;2.55;;;;;;;;;;5092605;28;20048;-60
2023/01/18 10:56:02;;;;;;;4.93;2.03;;;;;;;;;;5092567;28;20382;-61
2023/01/18 10:58:47;;;;;;;3.45;2.20;;;;;;;;;;5091437;28;20024;-60
2023/01/18 11:01:22;;;;;;;2.60;2.40;;;;;;;;;;5092805;28;20035;-60
2023/01/18 11:03:51;;;;;;;3.70;2.10;;;;;;;;;;5092463;28;20066;-59
2023/01/18 11:06:19;;;;;;;5.25;2.30;;;;;;;;;;5090758;28;20020;-61
2023/01/18 11:08:46;;;;;;;2.60;2.40;;;;;;;;;;5311562;22;20054;-64
2023/01/18 11:11:11;;;;;;;2.50;2.30;;;;;;;;;;5033830;28;20032;-63
2023/01/18 11:13:45;;;;;;;3.63;2.40;;;;;;;;;;5029295;28;20485;-63
2023/01/18 11:16:13;;;;;;;5.00;2.35;;;;;;;;;;5030467;28;20053;-63
2023/01/18 11:19:00;;;;;;;2.30;2.10;;;;;;;;;;5030095;28;20021;-63
2023/01/18 11:21:39;;;;;;;3.97;2.58;;;;;;;;;;5030385;28;20013;-63
2023/01/18 11:24:09;;;;;;;2.45;2.10;;;;;;;;;;5032029;28;20096;-63
2023/01/18 11:26:51;;;;;;;2.55;2.35;;;;;;;;;;5032273;28;20060;-63
2023/01/18 11:29:17;;;;;;;3.00;2.40;;;;;;;;;;5032055;28;20500;-63
2023/01/18 11:31:45;;;;;;;2.47;2.28;;;;;;;;;;5035808;28;20025;-63
2023/01/18 11:34:42;;;;;;;2.60;2.40;;;;;;;;;;5035731;28;20094;-63
2023/01/18 11:37:28;;;;;;;2.55;2.35;;;;;;;;;;5034233;28;20063;-63
2023/01/18 11:39:54;;;;;;;3.25;2.25;;;;;;;;;;5035887;28;20060;-63
2023/01/18 11:42:30;;;;;;;2.28;2.10;;;;;;;;;;5035288;28;20056;-63
2023/01/18 11:45:25;;;;;;;3.03;2.50;;;;;;;;;;5035488;28;20033;-62
2023/01/18 11:48:12;;;;;;;4.88;2.33;;;;;;;;;;5035221;28;20065;-62
2023/01/18 11:50:45;;;;;;;3.00;2.55;;;;;;;;;;5035332;28;20032;-63
2023/01/18 11:53:40;;;;;;;2.63;2.42;;;;;;;;;;5035389;28;20040;-62
2023/01/18 11:56:12;;;;;;;2.60;2.33;;;;;;;;;;5035552;28;20166;-63
2023/01/18 11:58:39;;;;;;;2.70;2.50;;;;;;;;;;5035347;28;20067;-63
2023/01/18 12:01:20;;;;;;;2.47;2.28;;;;;;;;;;5035383;28;20021;-62
2023/01/18 12:04:21;;;;;;;4.00;2.30;;;;;;;;;;5035249;28;20036;-63
2023/01/18 12:06:54;;;;;;;2.67;2.45;;;;;;;;;;5035422;28;20033;-62
2023/01/18 12:09:22;;;;;;;2.63;2.10;;;;;;;;;;5035111;28;20494;-63
2023/01/18 12:12:06;;;;;;;2.10;1.90;;;;;;;;;;5035076;28;20040;-63
2023/01/18 12:14:58;;;;;;;2.45;2.25;;;;;;;;;;5034712;28;20153;-63
2023/01/18 12:17:45;;;;;;;2.30;2.10;;;;;;;;;;5034741;28;20532;-63
2023/01/18 12:20:35;;;;;;;2.20;2.00;;;;;;;;;;5034745;28;20034;-63
2023/01/18 12:23:37;;;;;;;2.30;2.10;;;;;;;;;;5034630;28;20489;-65
2023/01/18 12:26:14;;;;;;;2.47;2.28;;;;;;;;;;5016745;28;20095;-62
2023/01/18 12:29:07;;;;;;;2.20;2.00;;;;;;;;;;5034644;28;20618;-62
2023/01/18 12:31:56;;;;;;;2.45;2.25;;;;;;;;;;5034362;28;20057;-62
2023/01/18 12:34:26;;;;;;;3.13;2.17;;;;;;;;;;5034503;28;20052;-62
2023/01/18 12:37:12;;;;;;;2.40;2.20;;;;;;;;;;5034588;28;20113;-62
2023/01/18 12:39:56;;;;;;;3.00;2.05;;;;;;;;;;5034440;28;20056;-62
2023/01/18 12:42:38;;;;;;;2.13;2.00;;;;;;;;;;5034302;28;20037;-63
2023/01/18 12:45:08;;;;;;;2.20;2.00;;;;;;;;;;5034653;28;20040;-63
2023/01/18 12:47:38;;;;;;;2.10;1.90;;;;;;;;;;5034360;28;20124;-63
2023/01/18 12:50:27;;;;;;;2.20;1.90;;;;;;;;;;5034163;28;20113;-62
2023/01/18 12:52:58;;;;;;;2.33;2.13;;;;;;;;;;5034818;28;20033;-65
2023/01/18 12:55:27;;;;;;;2.58;2.38;;;;;;;;;;5034245;28;20026;-63
2023/01/18 12:57:57;;;;;;;2.00;1.90;;;;;;;;;;5034430;28;20037;-65
2023/01/18 13:00:45;;;;;;;2.50;2.30;;;;;;;;;;5034314;28;20025;-64
2023/01/18 13:03:18;;;;;;;2.40;2.20;;;;;;;;;;5034394;28;20029;-64
2023/01/18 13:05:57;;;;;;;2.40;2.20;;;;;;;;;;5033960;28;20029;-62
2023/01/18 13:08:37;;;;;;;2.25;2.05;;;;;;;;;;5033747;28;20041;-65
2023/01/18 13:11:25;;;;;;;2.20;1.98;;;;;;;;;;5033907;28;20416;-65
2023/01/18 13:14:10;;;;;;;2.35;2.13;;;;;;;;;;5033759;28;20036;-66
2023/01/18 13:16:44;;;;;;;2.25;2.05;;;;;;;;;;5033924;28;20051;-64
2023/01/18 13:19:21;;;;;;;2.25;2.05;;;;;;;;;;5033783;28;20079;-65
2023/01/18 13:22:04;;;;;;;2.30;2.10;;;;;;;;;;5033980;28;20029;-65
2023/01/18 13:24:38;;;;;;;2.03;1.90;;;;;;;;;;5034009;28;20033;-65
2023/01/18 13:27:09;;;;;;;2.20;1.95;;;;;;;;;;5033668;28;20099;-65
2023/01/18 13:29:35;;;;;;;2.08;1.85;;;;;;;;;;5033799;28;20036;-64
2023/01/18 13:32:19;;;;;;;2.20;2.00;;;;;;;;;;5033613;28;20079;-63
2023/01/18 13:34:47;;;;;;;2.22;2.10;;;;;;;;;;5033661;28;20029;-65
2023/01/18 13:37:51;;;;;;;2.13;2.03;;;;;;;;;;5033318;28;20032;-64
2023/01/18 13:40:21;;;;;;;2.30;2.10;;;;;;;;;;5033397;28;20547;-65
2023/01/18 13:42:46;;;;;;;2.30;2.10;;;;;;;;;;5033150;28;20026;-64
2023/01/18 13:45:21;;;;;;;2.20;2.00;;;;;;;;;;5033238;28;20496;-63
2023/01/18 13:47:48;;;;;;;2.15;1.95;;;;;;;;;;5033196;28;20032;-62
2023/01/18 13:50:38;;;;;;;1.90;1.80;;;;;;;;;;5033105;28;20028;-62
2023/01/18 13:53:10;;;;;;;2.10;1.90;;;;;;;;;;5032532;28;20037;-63
2023/01/18 13:55:35;;;;;;;3.15;1.90;;;;;;;;;;5033165;28;20025;-62
2023/01/18 13:58:01;;;;;;;2.15;1.95;;;;;;;;;;5032944;28;20485;-63
2023/01/18 14:00:28;;;;;;;2.70;2.50;;;;;;;;;;5033021;28;20068;-62
2023/01/18 14:03:13;;;;;;;2.22;2.03;;;;;;;;;;5032764;28;20025;-63
2023/01/18 14:05:45;;;;;;;2.20;2.00;;;;;;;;;;5033436;28;20059;-64
2023/01/18 14:08:22;;;;;;;2.38;2.17;;;;;;;;;;5032334;28;20053;-64
2023/01/18 14:10:54;;;;;;;2.30;2.10;;;;;;;;;;5015188;28;20037;-64
2023/01/18 14:13:44;;;;;;;2.30;1.95;;;;;;;;;;5032734;28;20022;-65
2023/01/18 14:16:39;;;;;;;1.92;1.83;;;;;;;;;;5032610;28;20466;-64
2023/01/18 14:19:17;;;;;;;1.98;1.80;;;;;;;;;;5030065;28;20428;-63
2023/01/18 14:21:58;;;;;;;2.30;2.10;;;;;;;;;;5032678;28;20528;-63
2023/01/18 14:25:00;;;;;;;2.40;2.20;;;;;;;;;;5032770;28;20067;-64
2023/01/18 14:27:31;;;;;;;2.13;2.00;;;;;;;;;;5032856;28;20025;-64
2023/01/18 14:30:06;;;;;;;1.88;1.77;;;;;;;;;;5015191;28;20028;-64
2023/01/18 14:32:43;;;;;;;2.30;2.00;;;;;;;;;;5032508;28;20025;-64
2023/01/18 14:35:22;;;;;;;2.20;2.00;;;;;;;;;;5032436;28;20029;-64
2023/01/18 14:37:48;;;;;;;2.00;1.90;;;;;;;;;;5032830;28;20087;-64
2023/01/18 14:40:25;;;;;;;2.00;1.80;;;;;;;;;;5031632;28;20041;-63
2023/01/18 14:42:54;;;;;;;2.28;1.90;;;;;;;;;;5032737;28;20381;-64
2023/01/18 14:45:26;;;;;;;2.03;1.85;;;;;;;;;;5032684;28;20083;-64
2023/01/18 14:47:53;;;;;;;2.08;1.83;;;;;;;;;;5032591;28;20055;-63
2023/01/18 14:50:21;;;;;;;2.10;1.90;;;;;;;;;;5032608;28;20109;-64
2023/01/18 14:52:49;;;;;;;2.03;1.92;;;;;;;;;;5032593;28;20018;-64
2023/01/18 14:55:30;;;;;;;2.15;1.95;;;;;;;;;;5032388;28;20096;-63
2023/01/18 14:58:22;;;;;;;2.17;1.98;;;;;;;;;;5032456;28;20030;-65
2023/01/18 15:00:52;;;;;;;2.00;1.90;;;;;;;;;;5027500;28;20450;-64
2023/01/18 15:03:28;;;;;;;4.15;2.00;;;;;;;;;;5032869;28;20041;-63
2023/01/18 15:06:06;;;;;;;2.20;2.10;;;;;;;;;;5017268;28;20029;-64
2023/01/18 15:08:33;;;;;;;3.30;2.30;;;;;;;;;;5036049;28;20428;-64
2023/01/18 15:11:00;;;;;;;2.05;1.80;;;;;;;;;;5036121;28;20049;-63
2023/01/18 15:13:28;;;;;;;2.15;1.90;;;;;;;;;;5036101;28;20030;-64
2023/01/18 15:15:55;;;;;;;2.45;1.90;;;;;;;;;;5036570;28;20021;-63
2023/01/18 15:18:25;;;;;;;2.28;1.95;;;;;;;;;;5036341;28;20029;-63
2023/01/18 15:21:03;;;;;;;2.05;1.95;;;;;;;;;;5035942;28;20061;-64
2023/01/18 15:23:34;;;;;;;2.05;1.85;;;;;;;;;;5036243;28;20037;-63
2023/01/18 15:26:00;;;;;;;1.90;1.80;;;;;;;;;;5035893;28;20037;-64
2023/01/18 15:28:32;;;;;;;2.40;2.20;;;;;;;;;;5035786;28;20029;-64
2023/01/18 15:30:58;;;;;;;2.40;2.13;;;;;;;;;;5035843;28;20032;-63
2023/01/18 15:33:26;;;;;;;2.55;2.30;;;;;;;;;;5035704;28;20018;-63
2023/01/18 15:35:59;;;;;;;2.65;1.95;;;;;;;;;;5035996;28;20045;-63
2023/01/18 15:38:25;;;;;;;2.00;1.80;;;;;;;;;;5035772;28;20025;-62
2023/01/18 15:40:59;;;;;;;2.22;1.90;;;;;;;;;;5035675;28;20441;-63
2023/01/18 15:43:34;;;;;;;2.20;2.00;;;;;;;;;;5035595;28;20021;-62
2023/01/18 15:46:01;;;;;;;2.30;2.10;;;;;;;;;;5035524;28;20053;-63
2023/01/18 15:48:33;;;;;;;2.00;1.90;;;;;;;;;;5035534;28;20061;-63
2023/01/18 15:51:06;;;;;;;2.00;1.83;;;;;;;;;;5035461;28;20088;-63
2023/01/18 15:53:37;;;;;;;2.17;1.98;;;;;;;;;;5035608;28;20025;-63
2023/01/18 15:56:06;;;;;;;2.13;1.92;;;;;;;;;;5035403;28;20061;-63
2023/01/18 15:58:37;;;;;;;2.67;2.10;;;;;;;;;;5035256;28;20025;-63
2023/01/18 16:01:12;;;;;;;2.20;2.00;;;;;;;;;;5035523;28;20479;-63
2023/01/18 16:03:41;;;;;;;2.30;2.10;;;;;;;;;;5035173;28;20025;-63
2023/01/18 16:06:11;;;;;;;2.10;1.90;;;;;;;;;;5035118;28;20547;-64